Accueil
METAR-TAF:

METAR-TAF

Aéroports :

Aéroport d'Oxford Kidlington

Oxford, Angleterre

latitude: 51-50-13N, longitude: 1-19-12W, altitude: 82 m

Observation

Le bulletin a été fait il y a 26 minutes, à 13:50 UTC
Vent 7 kt de sud
Température 9°C
Humidité 81%
Pression 1017 hPa
Visibilité 10 km ou plus
pas de nuages en-dessous de 1500 mètres et pas de cumulonimbus.

METAR: EGTK 171350Z 18007KT CAVOK 09/06 Q1017

Heure: 14:16 (14:16 UTC)

Prévision

Le bulletin a été fait il y a 3 heures et 19 minutes, à 10:57 UTC
Prévision valable du 17 à 12 UTC au 17 à 21 UTC
Vent 9 kt de sud/sud-ouest
Visibilité 10 km ou plus
Quelques nuages à une hauteur de 4500 ft
Probabilité 30% :
Temporairement
du 17 à 19 UTC au 17 à 21 UTC
Nuages fragmentés à une hauteur de 1400 ft

TAF: EGTK 171057Z 1712/1721 21009KT 9999 FEW045 PROB30 TEMPO 1719/1721 BKN014

Observations et prévisions météorologiques de plus de 4000 aéroports (messages METAR et TAF).

Les stations disponibles sont représentées par des disques jaunes et rouges sur la carte.

Passer la souris dessus pour voir le nom de la station.

Cliquer dessus pour voir les observations et prévisions météorologiques.

Pour changer de carte: cliquez sur les boutons verts avec une croix noire pour zoomer, sur le bouton vert avec un tiret pour effectuer un zoom arrière, ou sur les flèches vertes pour les cartes adjacentes.


METAR-TAF: